Time;durP1;ratioP1;P1;durP2;ratioP2;P2;SDS_P1;SDS_P2;PMS_P1;PMS_P2;Temp;Humidity;BMP_temperature;BMP_pressure;BME280_temperature;BME280_humidity;BME280_pressure;Samples;Min_cycle;Max_cycle;Signal;HPM_P1;HPM_P2
2023/01/22 00:01:08;;;;;;;3.55;1.98;;;;;;;4.13;89.19;102475.97;4997820;28;20042;-69
2023/01/22 00:03:35;;;;;;;3.90;1.67;;;;;;;4.02;89.59;102476.22;4983921;28;20053;-69
2023/01/22 00:06:00;;;;;;;2.90;2.00;;;;;;;4.00;89.37;102476.50;4986771;28;20177;-69
2023/01/22 00:08:26;;;;;;;1.50;1.17;;;;;;;4.03;89.40;102477.81;4979904;28;20125;-69
2023/01/22 00:10:52;;;;;;;3.13;1.77;;;;;;;4.05;88.98;102483.69;4986960;28;20022;-69
2023/01/22 00:13:19;;;;;;;3.25;1.98;;;;;;;3.93;89.19;102483.16;4986061;28;20035;-69
2023/01/22 00:15:44;;;;;;;9.52;2.42;;;;;;;3.90;89.14;102478.34;4984223;28;20037;-68
2023/01/22 00:18:10;;;;;;;1.02;0.95;;;;;;;3.87;89.49;102476.22;4983356;28;20081;-69
2023/01/22 00:20:36;;;;;;;3.42;1.92;;;;;;;3.88;89.36;102475.94;4979714;28;20748;-69
2023/01/22 00:23:02;;;;;;;2.42;1.50;;;;;;;3.88;89.56;102469.81;4988990;28;20093;-69
2023/01/22 00:25:27;;;;;;;4.05;1.55;;;;;;;3.97;89.36;102473.56;4989722;28;20033;-69
2023/01/22 00:27:53;;;;;;;1.38;1.27;;;;;;;3.89;89.06;102471.41;4992105;28;20041;-69
2023/01/22 00:30:18;;;;;;;2.28;1.38;;;;;;;3.87;89.09;102473.56;4989971;28;20039;-69
2023/01/22 00:32:45;;;;;;;3.03;0.93;;;;;;;4.16;88.83;102470.09;4989839;28;20082;-69
2023/01/22 00:35:13;;;;;;;1.92;1.13;;;;;;;4.13;88.30;102459.16;4985438;28;20717;-69
2023/01/22 00:37:38;;;;;;;2.67;1.83;;;;;;;4.30;87.77;102449.81;4987015;28;20034;-69
2023/01/22 00:40:04;;;;;;;1.20;1.15;;;;;;;4.18;87.06;102446.63;4990190;28;20100;-69
2023/01/22 00:42:30;;;;;;;1.33;1.23;;;;;;;4.07;87.76;102446.91;4990814;28;20542;-68
2023/01/22 00:44:58;;;;;;;1.73;1.17;;;;;;;4.08;87.77;102443.19;5006370;28;20049;-69
2023/01/22 00:47:24;;;;;;;3.50;1.77;;;;;;;4.16;86.97;102446.09;4974026;28;20436;-69
2023/01/22 00:49:49;;;;;;;1.45;1.10;;;;;;;4.06;87.70;102445.31;4990037;28;20068;-69
2023/01/22 00:52:16;;;;;;;1.90;1.00;;;;;;;4.13;87.22;102438.66;4981465;28;20057;-69
2023/01/22 00:54:41;;;;;;;1.77;1.63;;;;;;;4.03;86.95;102443.97;4991050;28;20045;-69
2023/01/22 00:57:07;;;;;;;2.90;1.52;;;;;;;4.07;87.38;102444.22;4989671;28;20037;-69
2023/01/22 00:59:32;;;;;;;4.28;2.05;;;;;;;4.12;87.36;102450.38;5006056;28;20399;-69
2023/01/22 01:01:58;;;;;;;1.90;1.33;;;;;;;3.96;87.75;102443.44;4978148;28;20042;-69
2023/01/22 01:04:25;;;;;;;3.33;1.58;;;;;;;4.01;87.75;102439.97;5003621;28;20511;-69
2023/01/22 01:06:50;;;;;;;1.58;1.10;;;;;;;3.99;87.41;102434.91;5006272;28;20121;-69
2023/01/22 01:09:16;;;;;;;1.60;1.50;;;;;;;3.86;87.79;102445.28;4989951;28;20037;-69
2023/01/22 01:11:41;;;;;;;2.17;1.50;;;;;;;3.81;88.06;102448.78;4988305;28;20038;-69
2023/01/22 01:14:08;;;;;;;3.80;2.10;;;;;;;3.91;88.07;102448.75;4991010;28;20026;-69
2023/01/22 01:16:33;;;;;;;2.33;1.52;;;;;;;3.96;87.91;102450.63;5002928;28;20034;-69
2023/01/22 01:19:01;;;;;;;1.23;1.13;;;;;;;3.96;87.96;102447.97;4989649;28;20168;-69
2023/01/22 01:21:28;;;;;;;2.67;1.50;;;;;;;3.92;87.84;102444.22;5005590;28;20030;-69
2023/01/22 01:23:57;;;;;;;3.67;1.50;;;;;;;4.08;87.96;102444.00;4989522;28;20026;-69
2023/01/22 01:26:24;;;;;;;1.52;1.35;;;;;;;4.21;87.30;102445.31;4986335;28;20113;-69
2023/01/22 01:28:51;;;;;;;1.33;1.23;;;;;;;4.16;86.77;102440.00;4989932;28;20081;-69
2023/01/22 01:31:17;;;;;;;3.53;2.03;;;;;;;4.14;87.11;102442.13;4988573;28;20026;-69
2023/01/22 01:33:43;;;;;;;3.97;1.60;;;;;;;4.06;87.10;102435.47;4989809;28;20037;-69
2023/01/22 01:36:14;;;;;;;1.95;1.25;;;;;;;4.06;87.14;102438.13;4989774;28;20548;-69
2023/01/22 01:38:40;;;;;;;7.65;1.65;;;;;;;4.15;86.90;102441.03;4988491;28;20057;-69
2023/01/22 01:41:06;;;;;;;2.08;1.40;;;;;;;4.11;87.18;102438.13;4989083;28;20600;-69
2023/01/22 01:43:33;;;;;;;2.75;1.40;;;;;;;4.06;86.85;102439.97;4981697;28;20170;-69
2023/01/22 01:46:01;;;;;;;2.10;1.42;;;;;;;4.16;86.91;102437.31;4975014;28;20498;-69
2023/01/22 01:48:37;;;;;;;2.03;1.38;;;;;;;4.11;87.36;102432.78;4989519;28;20038;-69
2023/01/22 01:51:14;;;;;;;2.63;1.50;;;;;;;4.13;87.39;102429.84;5005170;28;20503;-69
2023/01/22 01:53:41;;;;;;;2.67;1.67;;;;;;;4.19;86.47;102432.25;4988385;28;20046;-68
2023/01/22 01:56:11;;;;;;;1.85;1.50;;;;;;;4.12;86.74;102433.59;5005962;28;20025;-69
2023/01/22 01:58:38;;;;;;;1.85;1.67;;;;;;;4.23;86.92;102429.84;4989593;28;20081;-69
2023/01/22 02:01:11;;;;;;;1.92;1.58;;;;;;;4.18;87.14;102435.19;5001648;28;20030;-69
2023/01/22 02:03:38;;;;;;;3.63;1.50;;;;;;;4.12;87.11;102438.91;4985634;28;20035;-69
2023/01/22 02:06:04;;;;;;;1.88;1.33;;;;;;;4.15;87.55;102433.03;4988538;28;20027;-69
2023/01/22 02:08:30;;;;;;;1.60;1.48;;;;;;;4.07;87.02;102430.91;4989752;28;20057;-69
2023/01/22 02:10:57;;;;;;;2.03;1.60;;;;;;;4.13;87.04;102430.66;4985308;28;20035;-69
2023/01/22 02:13:30;;;;;;;3.85;1.80;;;;;;;4.04;87.40;102436.78;4984922;28;20413;-68
2023/01/22 02:15:57;;;;;;;2.88;1.40;;;;;;;3.94;88.07;102431.44;4989201;28;20454;-69
2023/01/22 02:18:25;;;;;;;2.58;1.83;;;;;;;3.98;88.00;102438.66;4990718;28;20072;-69
2023/01/22 02:20:58;;;;;;;1.75;1.38;;;;;;;4.00;88.02;102435.72;4983575;28;20027;-69
2023/01/22 02:23:24;;;;;;;2.10;1.42;;;;;;;4.15;87.92;102436.53;4989684;28;20108;-69
2023/01/22 02:25:50;;;;;;;0.93;0.90;;;;;;;4.14;86.87;102431.47;4993817;28;20125;-69
2023/01/22 02:28:17;;;;;;;4.10;2.10;;;;;;;4.11;87.44;102431.97;4992753;28;20068;-69
2023/01/22 02:30:43;;;;;;;1.77;1.55;;;;;;;4.21;87.28;102432.78;4991834;28;20037;-69
2023/01/22 02:33:11;;;;;;;3.92;1.40;;;;;;;4.05;87.70;102431.19;4991988;28;20034;-69
2023/01/22 02:35:40;;;;;;;1.63;1.38;;;;;;;4.19;87.92;102429.59;4992779;28;20030;-69
2023/01/22 02:38:05;;;;;;;4.65;2.35;;;;;;;4.20;87.92;102422.41;4997238;28;20037;-69
2023/01/22 02:40:32;;;;;;;2.58;1.67;;;;;;;4.00;88.10;102420.53;4976326;28;20077;-69
2023/01/22 02:42:58;;;;;;;8.00;1.90;;;;;;;3.98;88.84;102427.19;5005777;28;20054;-69
2023/01/22 02:45:24;;;;;;;1.83;1.63;;;;;;;4.00;88.68;102425.06;4989030;28;20081;-69
2023/01/22 02:47:50;;;;;;;3.72;1.65;;;;;;;4.18;88.62;102421.88;4992142;28;20451;-69
2023/01/22 02:50:16;;;;;;;3.58;2.10;;;;;;;4.08;88.78;102416.53;4992820;28;20113;-69
2023/01/22 02:52:42;;;;;;;1.42;1.25;;;;;;;4.06;88.67;102418.66;4992533;28;20386;-68
2023/01/22 02:55:08;;;;;;;1.90;1.13;;;;;;;3.98;89.19;102411.19;4991784;28;20042;-69
2023/01/22 02:57:33;;;;;;;2.03;1.40;;;;;;;3.94;89.93;102408.28;5004394;28;20049;-68
2023/01/22 02:59:59;;;;;;;3.42;1.80;;;;;;;4.08;89.47;102409.34;4991322;28;20053;-69
2023/01/22 03:02:25;;;;;;;1.58;1.30;;;;;;;3.96;89.23;102408.00;4990745;28;20503;-69
2023/01/22 03:05:01;;;;;;;2.33;1.30;;;;;;;3.88;90.35;102414.66;4990690;28;20483;-68
2023/01/22 03:07:43;;;;;;;10.48;1.58;;;;;;;3.93;90.62;102414.66;5004509;28;20034;-69
2023/01/22 03:10:16;;;;;;;3.20;1.70;;;;;;;3.88;91.20;102411.19;4991754;28;20027;-69
2023/01/22 03:21:16;;;;;;;2.58;1.35;;;;;;;4.27;90.28;102399.72;4989579;28;20038;-69
2023/01/22 03:23:44;;;;;;;3.25;1.58;;;;;;;4.34;89.77;102415.44;4991705;28;20037;-69
2023/01/22 03:26:09;;;;;;;3.10;1.52;;;;;;;4.36;89.33;102408.75;4991447;28;20030;-69
2023/01/22 03:28:36;;;;;;;2.67;1.92;;;;;;;4.04;90.29;102405.63;5007564;28;20052;-69
2023/01/22 03:31:01;;;;;;;3.10;1.60;;;;;;;4.04;90.81;102407.47;4989024;28;20029;-69
2023/01/22 03:33:28;;;;;;;4.93;1.98;;;;;;;4.03;90.84;102404.00;5006511;28;20089;-69
2023/01/22 03:35:59;;;;;;;2.42;1.38;;;;;;;4.02;90.99;102404.28;4992800;28;20026;-69
2023/01/22 03:38:25;;;;;;;2.55;1.27;;;;;;;3.96;91.90;102402.66;4989040;28;20708;-68
2023/01/22 03:40:52;;;;;;;2.30;1.67;;;;;;;3.93;91.63;102396.00;5007360;28;20410;-69
2023/01/22 03:43:20;;;;;;;1.50;1.35;;;;;;;3.79;91.95;102402.13;4990418;28;20034;-69
2023/01/22 03:45:46;;;;;;;1.65;1.40;;;;;;;3.79;93.08;102402.13;4972268;28;20096;-69
2023/01/22 03:48:14;;;;;;;1.75;1.40;;;;;;;3.99;92.11;102405.59;4975863;28;20045;-69
2023/01/22 03:50:40;;;;;;;1.75;1.15;;;;;;;3.76;92.76;102413.31;5006970;28;20026;-69
2023/01/22 03:53:05;;;;;;;1.38;1.27;;;;;;;3.98;92.00;102404.00;4992045;28;20375;-69
2023/01/22 03:55:32;;;;;;;3.13;1.98;;;;;;;4.00;92.08;102414.41;4990516;28;20486;-69
2023/01/22 03:57:57;;;;;;;2.83;1.58;;;;;;;3.99;91.65;102413.59;5007590;28;20100;-69
2023/01/22 04:00:23;;;;;;;3.22;1.50;;;;;;;4.04;91.53;102424.28;5006868;28;20018;-69
2023/01/22 04:02:49;;;;;;;5.43;1.45;;;;;;;3.89;92.39;102402.94;4980329;28;20487;-69
2023/01/22 04:05:21;;;;;;;2.55;1.25;;;;;;;3.98;92.23;102411.19;4990441;28;20463;-69
2023/01/22 04:07:49;;;;;;;1.85;1.02;;;;;;;3.97;92.16;102407.72;4991336;28;20411;-69
2023/01/22 04:10:16;;;;;;;1.25;1.15;;;;;;;3.86;92.43;102406.13;5004924;28;20034;-69
2023/01/22 04:12:43;;;;;;;2.45;1.60;;;;;;;3.82;92.79;102412.25;4987822;28;20046;-68
2023/01/22 04:15:11;;;;;;;3.80;2.03;;;;;;;3.90;93.13;102406.41;4990632;28;20129;-69
2023/01/22 04:17:37;;;;;;;3.40;1.75;;;;;;;3.99;92.76;102404.81;4990288;28;20026;-69
2023/01/22 04:20:16;;;;;;;1.30;1.17;;;;;;;3.97;92.87;102407.72;4986222;28;20034;-69
2023/01/22 04:22:46;;;;;;;3.42;2.20;;;;;;;4.00;92.78;102406.41;4986588;28;20072;-69
2023/01/22 04:25:12;;;;;;;2.30;1.73;;;;;;;3.98;92.69;102411.19;4989772;28;20090;-69
2023/01/22 04:27:37;;;;;;;1.73;0.98;;;;;;;3.96;92.96;102411.47;4979902;28;20022;-69
2023/01/22 04:30:05;;;;;;;2.17;1.48;;;;;;;4.01;92.69;102408.78;4989631;28;20026;-69
2023/01/22 04:32:30;;;;;;;7.88;1.67;;;;;;;3.87;93.40;102402.38;5006262;28;20037;-69
2023/01/22 04:35:06;;;;;;;4.53;2.55;;;;;;;3.99;93.25;102402.94;4991685;28;20023;-69
2023/01/22 04:37:36;;;;;;;2.28;1.38;;;;;;;4.16;92.68;102408.00;4988791;28;20034;-69
2023/01/22 04:40:04;;;;;;;2.17;1.55;;;;;;;4.13;92.16;102411.19;4979239;28;20045;-69
2023/01/22 04:42:31;;;;;;;1.65;1.45;;;;;;;4.12;92.61;102402.38;4989605;28;20030;-69
2023/01/22 04:44:58;;;;;;;2.90;1.58;;;;;;;4.21;92.26;102394.66;4990118;28;20018;-69
2023/01/22 04:47:23;;;;;;;6.20;2.03;;;;;;;4.20;91.91;102403.75;4986929;28;20182;-69
2023/01/22 04:49:49;;;;;;;2.17;1.83;;;;;;;4.22;91.87;102396.28;4988481;28;20521;-69
2023/01/22 04:52:15;;;;;;;2.47;1.45;;;;;;;4.22;91.14;102394.38;4990868;28;20503;-69
2023/01/22 04:54:41;;;;;;;2.92;1.63;;;;;;;4.31;91.56;102394.66;4988837;28;20034;-69
2023/01/22 04:57:07;;;;;;;3.13;1.40;;;;;;;4.32;90.78;102396.22;5006324;28;20517;-69
2023/01/22 04:59:32;;;;;;;3.63;1.75;;;;;;;4.25;91.41;102395.72;4989985;28;20030;-69
2023/01/22 05:02:01;;;;;;;1.55;1.45;;;;;;;4.35;91.18;102390.38;4989281;28;20454;-68
2023/01/22 05:04:27;;;;;;;4.53;1.20;;;;;;;4.21;91.00;102384.81;4989432;28;20030;-69
2023/01/22 05:06:53;;;;;;;2.80;1.40;;;;;;;4.13;91.92;102393.34;4990941;28;20033;-69
2023/01/22 05:09:19;;;;;;;3.38;1.42;;;;;;;4.26;92.05;102399.97;4990230;28;20034;-69
2023/01/22 05:11:50;;;;;;;1.40;1.20;;;;;;;4.34;91.65;102388.75;4986791;28;20026;-68
2023/01/22 05:14:16;;;;;;;1.88;1.45;;;;;;;4.36;91.51;102395.44;4989164;28;20521;-68
2023/01/22 05:16:43;;;;;;;3.40;1.70;;;;;;;4.42;90.66;102393.56;4989206;28;20026;-69
2023/01/22 05:19:09;;;;;;;1.58;1.45;;;;;;;4.36;91.54;102390.09;4980624;28;20472;-69
2023/01/22 05:21:34;;;;;;;2.50;1.73;;;;;;;4.56;90.87;102398.06;5002527;28;20089;-69
2023/01/22 05:24:00;;;;;;;3.03;1.40;;;;;;;4.47;90.38;102382.88;4973088;28;20073;-68
2023/01/22 05:26:28;;;;;;;2.17;1.27;;;;;;;4.40;90.63;102387.69;5000835;28;20617;-69
2023/01/22 05:29:01;;;;;;;4.10;1.73;;;;;;;4.24;91.49;102388.81;4987992;28;20031;-68
2023/01/22 05:31:32;;;;;;;1.48;1.38;;;;;;;4.22;91.53;102386.38;4982153;28;20457;-69
2023/01/22 05:34:00;;;;;;;2.55;1.58;;;;;;;4.26;91.61;102402.63;5005233;28;20030;-69
2023/01/22 05:36:27;;;;;;;1.60;1.38;;;;;;;4.30;91.39;102395.69;4974097;28;20494;-69
2023/01/22 05:38:57;;;;;;;2.72;1.60;;;;;;;4.31;91.95;102389.31;5025050;23;20049;-67
2023/01/22 05:41:24;;;;;;;2.08;1.52;;;;;;;4.49;91.34;102386.88;5021714;28;20091;-67
2023/01/22 05:43:52;;;;;;;1.42;1.15;;;;;;;4.64;90.96;102398.56;5024279;28;20034;-67
2023/01/22 05:46:22;;;;;;;1.30;1.20;;;;;;;4.49;90.81;102391.41;5020418;28;20032;-67
2023/01/22 05:48:53;;;;;;;;;;;;;;;4.28;91.60;102405.84;5030446;28;20128;-67
2023/01/22 05:51:22;;;;;;;1.05;0.98;;;;;;;4.38;91.82;102395.97;5015871;28;19957;-67
2023/01/22 05:53:48;;;;;;;2.42;1.55;;;;;;;4.39;91.62;102402.09;5025475;28;20497;-67
2023/01/22 05:56:14;;;;;;;1.63;1.50;;;;;;;4.34;91.75;102397.56;5030213;28;20041;-67
2023/01/22 05:58:39;;;;;;;1.42;1.15;;;;;;;4.39;91.84;102397.53;5021339;28;20025;-67
2023/01/22 06:01:06;;;;;;;2.05;1.38;;;;;;;4.45;91.91;102409.03;5024005;28;20060;-67
2023/01/22 06:03:38;;;;;;;6.63;1.85;;;;;;;4.46;91.69;102407.94;5037988;28;20088;-67
2023/01/22 06:06:11;;;;;;;1.63;1.50;;;;;;;4.57;91.63;102399.66;5018849;28;20119;-67
2023/01/22 06:08:36;;;;;;;1.52;1.27;;;;;;;4.65;91.29;102400.16;5026686;28;20029;-67
2023/01/22 06:11:05;;;;;;;3.90;2.00;;;;;;;4.83;91.09;102412.91;5025054;28;20020;-67
2023/01/22 06:13:31;;;;;;;3.33;1.67;;;;;;;4.77;89.74;102412.13;5015483;28;20109;-67
2023/01/22 06:16:04;;;;;;;1.00;0.90;;;;;;;4.60;90.57;102406.31;5030408;28;20144;-67
2023/01/22 06:18:49;;;;;;;4.28;1.50;;;;;;;4.62;90.63;102404.19;5015240;28;20135;-67
2023/01/22 06:21:16;;;;;;;1.30;1.20;;;;;;;4.62;90.70;102404.19;5025256;28;20072;-67
2023/01/22 06:23:41;;;;;;;3.38;1.77;;;;;;;4.63;91.08;102405.00;5035591;28;20060;-67
2023/01/22 06:26:08;;;;;;;2.72;1.80;;;;;;;4.52;91.11;102410.34;5026952;28;20038;-67
2023/01/22 06:28:33;;;;;;;3.00;1.45;;;;;;;4.41;91.27;102406.06;5027600;28;20528;-67
2023/01/22 06:31:04;;;;;;;2.20;1.40;;;;;;;4.40;91.56;102403.69;5026244;28;20029;-67
2023/01/22 06:33:32;;;;;;;1.85;1.40;;;;;;;4.61;91.17;102405.22;5027014;28;20768;-67
2023/01/22 06:35:58;;;;;;;2.40;1.40;;;;;;;4.63;91.05;102413.75;5009722;28;20030;-67
2023/01/22 06:38:23;;;;;;;2.50;1.90;;;;;;;4.67;91.00;102416.69;5020614;28;20060;-67
2023/01/22 06:40:50;;;;;;;1.92;1.40;;;;;;;4.75;90.87;102414.28;5019285;28;20064;-67
2023/01/22 06:43:16;;;;;;;1.70;1.27;;;;;;;4.79;90.89;102411.84;5034299;28;20060;-67
2023/01/22 06:45:41;;;;;;;3.75;1.98;;;;;;;4.89;90.23;102415.28;5028487;28;20072;-67
2023/01/22 06:48:08;;;;;;;3.35;1.73;;;;;;;4.81;89.98;102415.06;5016426;28;20026;-67
2023/01/22 06:50:34;;;;;;;1.00;1.00;;;;;;;4.81;90.11;102426.53;5028556;28;20026;-67
2023/01/22 06:53:01;;;;;;;1.25;1.15;;;;;;;4.81;89.74;102431.88;5024777;28;20032;-67
2023/01/22 06:55:26;;;;;;;3.95;1.95;;;;;;;4.73;90.08;102429.75;5007979;28;20022;-67
2023/01/22 06:57:55;;;;;;;2.47;1.65;;;;;;;4.72;90.22;102438.84;5026215;28;20025;-67
2023/01/22 07:00:21;;;;;;;2.28;1.58;;;;;;;4.55;90.76;102432.97;5029352;28;20125;-67
2023/01/22 07:02:47;;;;;;;1.77;1.00;;;;;;;4.55;91.40;102432.97;5029358;28;20164;-67
2023/01/22 07:05:14;;;;;;;2.38;1.65;;;;;;;4.55;91.26;102439.13;5027922;28;20494;-67
2023/01/22 07:07:40;;;;;;;1.35;1.23;;;;;;;4.71;91.33;102436.41;5024513;28;20025;-67
2023/01/22 07:10:09;;;;;;;2.90;1.83;;;;;;;4.79;91.08;102444.69;5026020;28;20041;-67
2023/01/22 07:12:34;;;;;;;2.35;1.95;;;;;;;4.84;90.67;102441.97;5027507;28;20512;-67
2023/01/22 07:15:00;;;;;;;3.45;2.03;;;;;;;4.73;91.30;102445.75;5025148;28;20029;-67
2023/01/22 07:17:25;;;;;;;2.20;1.77;;;;;;;4.64;91.07;102450.06;5024761;28;20434;-67
2023/01/22 07:19:51;;;;;;;1.88;1.40;;;;;;;4.75;91.70;102448.97;5026379;28;20042;-67
2023/01/22 07:22:16;;;;;;;4.88;1.63;;;;;;;4.79;91.89;102458.03;5024008;28;20041;-67
2023/01/22 07:24:42;;;;;;;1.42;1.33;;;;;;;4.79;90.82;102447.34;5029224;28;20079;-67
2023/01/22 07:27:07;;;;;;;1.60;1.10;;;;;;;4.71;91.72;102449.75;5023811;28;20025;-67
2023/01/22 07:29:32;;;;;;;3.38;1.48;;;;;;;4.62;91.30;102457.53;5029458;28;20032;-67
2023/01/22 07:31:58;;;;;;;2.35;1.13;;;;;;;4.59;92.00;102460.72;5027338;28;20543;-67
2023/01/22 07:34:23;;;;;;;3.05;1.75;;;;;;;4.62;92.35;102457.53;5028733;28;20948;-67
2023/01/22 07:36:49;;;;;;;2.70;1.63;;;;;;;4.76;91.90;102460.44;5029320;28;20037;-67
2023/01/22 07:39:14;;;;;;;2.72;1.90;;;;;;;4.76;91.52;102461.25;5030597;28;20041;-67
2023/01/22 07:41:40;;;;;;;4.82;2.25;;;;;;;4.66;91.89;102466.59;5028037;28;20025;-67
2023/01/22 07:44:10;;;;;;;2.13;1.13;;;;;;;4.82;91.59;102462.03;5022820;28;20050;-67
2023/01/22 07:46:37;;;;;;;3.38;1.45;;;;;;;4.82;91.46;102473.47;5029902;28;20043;-68
2023/01/22 07:49:04;;;;;;;3.70;1.45;;;;;;;4.80;92.11;102472.94;5023701;28;20104;-67
2023/01/22 07:51:29;;;;;;;1.58;1.48;;;;;;;4.81;91.68;102471.91;5044346;28;20432;-67
2023/01/22 07:53:55;;;;;;;2.33;1.38;;;;;;;4.70;91.88;102474.84;5030092;28;20033;-67
2023/01/22 07:56:20;;;;;;;2.40;1.60;;;;;;;4.67;92.84;102478.84;5029586;28;20124;-68
2023/01/22 07:58:46;;;;;;;7.32;1.92;;;;;;;4.70;92.18;102478.34;5029949;28;20083;-68
2023/01/22 08:01:11;;;;;;;2.28;1.25;;;;;;;4.67;92.34;102484.19;5020260;28;20095;-67
2023/01/22 08:03:37;;;;;;;2.88;1.05;;;;;;;4.69;92.50;102482.06;5020421;28;20038;-67
2023/01/22 08:06:11;;;;;;;1.65;1.15;;;;;;;4.70;92.32;102475.66;5027878;28;20128;-67
2023/01/22 08:08:37;;;;;;;2.50;1.17;;;;;;;4.76;92.86;102484.44;5023080;28;20033;-67
2023/01/22 08:11:04;;;;;;;1.55;1.40;;;;;;;4.89;92.24;102487.34;5029443;28;20067;-67
2023/01/22 08:13:30;;;;;;;3.60;1.30;;;;;;;4.73;93.10;102484.97;5025012;28;20563;-67
2023/01/22 08:15:55;;;;;;;3.30;1.30;;;;;;;4.74;92.59;102492.72;5026928;28;20029;-67
2023/01/22 08:18:21;;;;;;;3.03;1.40;;;;;;;4.82;92.56;102486.81;5029189;28;20079;-67
2023/01/22 08:20:46;;;;;;;2.53;1.55;;;;;;;4.78;92.86;102496.44;5028237;28;20659;-67
2023/01/22 08:23:12;;;;;;;2.60;1.30;;;;;;;4.80;93.20;102499.63;5026967;28;20056;-67
2023/01/22 08:25:37;;;;;;;2.25;1.05;;;;;;;4.91;93.04;102493.22;5029175;28;20058;-67
2023/01/22 08:28:04;;;;;;;1.42;0.98;;;;;;;5.03;92.38;102500.94;5026172;28;20033;-67
2023/01/22 08:30:34;;;;;;;2.42;1.67;;;;;;;5.06;92.83;102503.84;5026461;28;20021;-67
2023/01/22 08:33:01;;;;;;;2.83;1.35;;;;;;;5.13;91.92;102496.34;5021166;28;20034;-67
2023/01/22 08:35:28;;;;;;;2.35;1.50;;;;;;;5.25;91.52;102498.69;5025589;28;20814;-67
2023/01/22 08:37:57;;;;;;;6.80;1.85;;;;;;;5.12;91.89;102499.28;5025695;28;20048;-67
2023/01/22 08:40:23;;;;;;;1.27;0.93;;;;;;;5.11;92.41;102508.38;5026029;28;20049;-67
2023/01/22 08:42:53;;;;;;;2.20;1.50;;;;;;;5.09;92.40;102513.97;5023841;28;20021;-67
2023/01/22 08:45:19;;;;;;;3.95;1.67;;;;;;;5.16;92.49;102514.50;5020561;28;20104;-67
2023/01/22 08:47:44;;;;;;;3.42;1.90;;;;;;;5.18;92.31;102512.38;5017674;28;20037;-67
2023/01/22 08:50:10;;;;;;;2.20;1.50;;;;;;;5.17;92.16;102526.78;5024779;28;20053;-67
2023/01/22 08:52:35;;;;;;;1.55;1.20;;;;;;;5.09;92.12;102516.66;5024163;28;20493;-67
2023/01/22 08:55:01;;;;;;;1.92;1.15;;;;;;;5.12;92.81;102523.31;5028212;28;20040;-67
2023/01/22 08:57:26;;;;;;;2.85;1.58;;;;;;;5.13;92.31;102516.94;5025225;28;20040;-67
2023/01/22 08:59:52;;;;;;;4.32;1.80;;;;;;;5.29;91.77;102529.13;5028756;28;20041;-67
2023/01/22 09:02:17;;;;;;;1.95;1.23;;;;;;;5.19;92.17;102521.16;5038908;28;20160;-67
2023/01/22 09:04:42;;;;;;;2.35;1.35;;;;;;;5.19;91.74;102527.28;5026866;28;20057;-67
2023/01/22 09:07:09;;;;;;;1.83;1.60;;;;;;;5.07;92.58;102532.13;5028716;28;20037;-67
2023/01/22 09:09:35;;;;;;;2.33;1.45;;;;;;;5.15;92.18;102522.78;5024981;28;20531;-67
2023/01/22 09:12:00;;;;;;;4.38;1.85;;;;;;;5.15;92.15;102530.81;5028343;28;20104;-68
2023/01/22 09:14:26;;;;;;;2.67;1.67;;;;;;;5.19;92.13;102527.28;5028306;28;20171;-67
2023/01/22 09:16:51;;;;;;;2.35;1.30;;;;;;;5.16;92.03;102525.19;5016601;28;20033;-67
2023/01/22 09:19:17;;;;;;;4.90;1.73;;;;;;;5.17;92.92;102526.78;5026648;28;20106;-67
2023/01/22 09:21:42;;;;;;;1.88;1.70;;;;;;;5.18;92.05;102520.38;5023982;28;20038;-67
2023/01/22 09:24:08;;;;;;;2.90;1.30;;;;;;;5.23;92.75;102528.34;5024520;28;20037;-67
2023/01/22 09:26:35;;;;;;;4.40;1.38;;;;;;;5.41;92.70;102527.75;5021473;28;20200;-67
2023/01/22 09:29:04;;;;;;;2.13;1.50;;;;;;;5.40;91.11;102528.81;5016994;28;20108;-67
2023/01/22 09:31:32;;;;;;;1.35;1.17;;;;;;;5.28;92.47;102533.66;5022110;28;20044;-67
2023/01/22 09:33:58;;;;;;;2.85;1.52;;;;;;;5.23;91.85;102531.03;5020489;28;20087;-67
2023/01/22 09:36:23;;;;;;;6.53;2.45;;;;;;;5.24;91.87;102524.63;5032602;28;20029;-67
2023/01/22 09:38:49;;;;;;;2.25;1.40;;;;;;;5.33;92.49;102528.31;5030721;28;20026;-67
2023/01/22 09:41:37;;;;;;;2.65;1.60;;;;;;;5.38;92.43;102522.19;5021534;28;20057;-67
2023/01/22 09:44:16;;;;;;;2.05;1.48;;;;;;;5.42;91.85;102516.00;5026559;28;20588;-67
2023/01/22 09:46:58;;;;;;;9.07;1.55;;;;;;;5.32;92.30;102529.38;5025624;28;20113;-67
2023/01/22 09:49:30;;;;;;;2.28;1.48;;;;;;;5.28;92.39;102533.66;5022205;28;20041;-67
2023/01/22 09:51:58;;;;;;;2.85;1.70;;;;;;;5.19;93.62;102529.16;5028796;28;20386;-67
2023/01/22 09:54:26;;;;;;;2.75;1.52;;;;;;;5.28;92.91;102530.22;5026911;28;20183;-67
2023/01/22 09:56:55;;;;;;;2.17;1.00;;;;;;;5.25;93.22;102539.56;5025730;28;20489;-67
2023/01/22 09:59:45;;;;;;;3.35;1.88;;;;;;;5.33;93.15;102535.53;5028225;28;20501;-67
2023/01/22 10:02:37;;;;;;;1.85;1.63;;;;;;;5.44;93.55;102534.41;5039321;28;20034;-67
2023/01/22 10:05:18;;;;;;;4.18;2.10;;;;;;;5.47;92.93;102526.69;5036912;28;20080;-67
2023/01/22 10:07:51;;;;;;;1.13;1.02;;;;;;;5.51;93.41;102532.25;5025502;28;20090;-67
2023/01/22 10:10:27;;;;;;;1.92;1.27;;;;;;;5.50;93.16;102523.44;5017614;28;20029;-67
2023/01/22 10:13:05;;;;;;;2.83;1.65;;;;;;;5.49;92.88;102529.06;5018839;28;20039;-67
2023/01/22 10:15:30;;;;;;;4.80;1.77;;;;;;;5.45;94.25;102528.00;5019634;28;20043;-67
2023/01/22 10:17:56;;;;;;;4.93;1.35;;;;;;;5.46;94.07;102525.06;5021285;28;20451;-67
2023/01/22 10:20:23;;;;;;;1.30;1.20;;;;;;;5.57;94.05;102525.81;5026630;28;20042;-67
2023/01/22 10:22:52;;;;;;;2.30;1.35;;;;;;;5.44;93.98;102524.53;5027393;28;20052;-67
2023/01/22 10:25:18;;;;;;;4.95;1.10;;;;;;;5.50;93.81;102520.78;5025774;28;20124;-67
2023/01/22 10:27:46;;;;;;;2.85;1.48;;;;;;;5.57;93.79;102530.38;5021676;28;20135;-67
2023/01/22 10:30:21;;;;;;;2.90;1.17;;;;;;;5.70;93.43;102524.41;5036743;28;20154;-67
2023/01/22 10:33:02;;;;;;;4.55;1.50;;;;;;;5.80;94.18;102519.03;5018984;28;20031;-67
2023/01/22 10:35:30;;;;;;;2.97;1.50;;;;;;;5.92;93.32;102530.22;5020831;28;20029;-67
2023/01/22 10:37:57;;;;;;;5.38;1.45;;;;;;;5.97;93.26;102516.81;5012635;28;20038;-67
2023/01/22 10:40:39;;;;;;;4.80;2.05;;;;;;;5.95;92.34;102514.41;5013170;28;20042;-67
2023/01/22 10:43:09;;;;;;;1.70;1.30;;;;;;;6.05;92.68;102516.22;5021177;28;20068;-67
2023/01/22 10:45:35;;;;;;;2.03;1.27;;;;;;;6.06;92.50;102512.44;5021045;28;20048;-67
2023/01/22 10:48:14;;;;;;;1.27;1.10;;;;;;;6.18;92.49;102504.88;5018674;28;20037;-67
2023/01/22 10:50:41;;;;;;;1.77;1.55;;;;;;;6.22;92.27;102516.63;5020388;28;20671;-67
2023/01/22 10:53:18;;;;;;;1.17;1.10;;;;;;;6.18;91.65;102510.22;5026182;28;20033;-67
2023/01/22 10:55:54;;;;;;;2.88;1.05;;;;;;;6.10;91.38;102510.81;5026820;28;20041;-67
2023/01/22 10:58:21;;;;;;;2.47;1.17;;;;;;;6.13;91.59;102512.94;5027312;28;20041;-67
2023/01/22 11:01:05;;;;;;;0.73;0.73;;;;;;;5.95;90.96;102505.59;5024338;28;20153;-67
2023/01/22 11:03:35;;;;;;;2.55;1.00;;;;;;;6.07;91.18;102508.72;5018377;28;20185;-67
2023/01/22 11:06:16;;;;;;;7.60;0.73;;;;;;;6.14;90.93;102503.84;5027026;28;20394;-67
2023/01/22 11:08:44;;;;;;;1.02;0.77;;;;;;;6.29;89.94;102503.75;5020550;28;20033;-67
2023/01/22 11:11:12;;;;;;;2.78;0.82;;;;;;;6.37;89.47;102500.44;5022199;28;20093;-67
2023/01/22 11:14:14;;;;;;;3.88;1.13;;;;;;;6.35;88.80;102494.56;5022229;22;20058;-68
2023/01/22 11:16:40;;;;;;;1.45;0.50;;;;;;;6.43;89.15;102503.91;4991951;28;21409;-68
2023/01/22 11:19:14;;;;;;;4.90;0.65;;;;;;;6.33;88.72;102497.53;4979233;28;20406;-69
2023/01/22 11:21:46;;;;;;;3.33;0.98;;;;;;;6.30;88.75;102510.69;5000375;28;20084;-68
2023/01/22 11:24:36;;;;;;;7.35;0.85;;;;;;;6.37;88.35;102497.78;4987483;28;20712;-68
2023/01/22 11:27:13;;;;;;;2.65;0.90;;;;;;;6.42;88.69;102500.41;4982961;28;20027;-68
2023/01/22 11:30:06;;;;;;;2.03;0.77;;;;;;;6.42;87.92;102495.06;4982427;28;20035;-69
2023/01/22 11:32:31;;;;;;;0.95;0.93;;;;;;;6.46;88.27;102495.31;4965445;28;20486;-68
2023/01/22 11:35:11;;;;;;;4.38;0.68;;;;;;;6.53;87.65;102501.13;4981853;28;20032;-69
2023/01/22 11:38:16;;;;;;;1.77;0.70;;;;;;;6.33;87.52;102486.84;4988252;28;20026;-69
2023/01/22 11:41:06;;;;;;;2.83;1.08;;;;;;;6.50;88.44;102491.00;4984244;28;20050;-69
2023/01/22 11:43:43;;;;;;;1.38;1.27;;;;;;;6.66;87.48;102487.88;4987473;28;20069;-68
2023/01/22 11:46:15;;;;;;;3.42;1.08;;;;;;;6.77;86.61;102492.06;4983937;28;20037;-68
2023/01/22 11:48:52;;;;;;;3.25;0.85;;;;;;;6.61;87.12;102487.94;4986448;28;20031;-69